Time;durP1;ratioP1;P1;durP2;ratioP2;P2;SDS_P1;SDS_P2;PMS_P1;PMS_P2;Temp;Humidity;BMP_temperature;BMP_pressure;BME280_temperature;BME280_humidity;BME280_pressure;Samples;Min_cycle;Max_cycle;Signal;HPM_P1;HPM_P2
2021/10/08 00:01:43;;;;;;;12.40;9.60;;;10.30;99.90;;;;;;5033058;28;20931;-74
2021/10/08 00:04:08;;;;;;;15.20;8.50;;;10.20;99.90;;;;;;5032101;28;20167;-74
2021/10/08 00:06:34;;;;;;;12.33;9.03;;;10.30;99.90;;;;;;5034702;28;20194;-73
2021/10/08 00:09:00;;;;;;;15.60;9.40;;;10.30;99.90;;;;;;5033354;28;20198;-74
2021/10/08 00:11:26;;;;;;;13.43;8.83;;;10.30;99.90;;;;;;5032886;28;20238;-74
2021/10/08 00:13:53;;;;;;;10.77;8.57;;;10.40;99.90;;;;;;5032990;28;20524;-74
2021/10/08 00:16:19;;;;;;;11.80;8.70;;;10.40;99.90;;;;;;5032763;28;20909;-74
2021/10/08 00:18:45;;;;;;;11.07;8.20;;;10.30;99.90;;;;;;5020195;28;20426;-74
2021/10/08 00:21:11;;;;;;;10.60;8.53;;;10.30;99.90;;;;;;5012967;28;20421;-74
2021/10/08 00:23:37;;;;;;;11.67;8.80;;;10.30;99.90;;;;;;5012101;28;20418;-74
2021/10/08 00:26:03;;;;;;;10.80;8.47;;;10.30;99.90;;;;;;5013715;28;20200;-74
2021/10/08 00:28:29;;;;;;;9.90;7.80;;;10.20;99.90;;;;;;5016963;28;20514;-74
2021/10/08 00:30:54;;;;;;;10.47;7.50;;;10.30;99.90;;;;;;5021203;28;20543;-74
2021/10/08 00:33:20;;;;;;;12.43;8.77;;;10.30;99.90;;;;;;5012335;28;20253;-74
2021/10/08 00:35:45;;;;;;;11.37;7.90;;;10.30;99.90;;;;;;5012914;28;20195;-74
2021/10/08 00:38:11;;;;;;;13.87;9.13;;;10.30;99.90;;;;;;5012731;27;20195;-74
2021/10/08 00:40:40;;;;;;;11.30;8.30;;;10.20;99.90;;;;;;5014134;28;20266;-74
2021/10/08 00:43:06;;;;;;;9.50;7.77;;;10.00;99.90;;;;;;5024869;28;20190;-74
2021/10/08 00:45:32;;;;;;;9.10;7.37;;;10.00;99.90;;;;;;5032508;28;20421;-74
2021/10/08 00:48:01;;;;;;;10.77;8.37;;;10.00;99.90;;;;;;5032513;27;20521;-74
2021/10/08 00:50:28;;;;;;;10.07;7.90;;;10.00;99.90;;;;;;5032988;28;20464;-74
2021/10/08 00:52:54;;;;;;;11.40;9.23;;;9.90;99.90;;;;;;5025962;28;20425;-73
2021/10/08 00:55:19;;;;;;;11.07;7.93;;;9.90;99.90;;;;;;5011960;28;20427;-73
2021/10/08 00:57:46;;;;;;;10.40;7.10;;;9.80;99.90;;;;;;5013224;28;20459;-73
2021/10/08 01:00:14;;;;;;;9.73;7.63;;;9.80;99.90;;;;;;5012645;27;20328;-73
2021/10/08 01:02:40;;;;;;;13.40;7.87;;;9.80;99.90;;;;;;5012448;28;20497;-73
2021/10/08 01:05:06;;;;;;;10.93;7.33;;;9.80;99.90;;;;;;5030906;28;20520;-74
2021/10/08 01:07:31;;;;;;;9.40;7.63;;;9.80;99.90;;;;;;5032493;28;20169;-74
2021/10/08 01:09:57;;;;;;;10.23;7.20;;;9.70;99.90;;;;;;5032197;28;20465;-73
2021/10/08 01:12:22;;;;;;;10.17;7.73;;;9.60;99.90;;;;;;5032097;27;20270;-73
2021/10/08 01:14:48;;;;;;;11.60;8.00;;;9.60;99.90;;;;;;5030522;28;20171;-73
2021/10/08 01:17:19;;;;;;;11.27;8.00;;;9.50;99.90;;;;;;5031714;28;20163;-74
2021/10/08 01:19:46;;;;;;;10.07;7.60;;;9.60;99.90;;;;;;5031995;28;20253;-73
2021/10/08 01:22:12;;;;;;;9.83;7.73;;;9.60;99.90;;;;;;5031945;28;20910;-74
2021/10/08 01:24:38;;;;;;;10.40;8.40;;;9.60;99.90;;;;;;5029820;27;20441;-73
2021/10/08 01:27:04;;;;;;;10.30;7.60;;;9.50;99.90;;;;;;5031356;28;20432;-73
2021/10/08 01:29:31;;;;;;;10.17;7.00;;;9.50;99.90;;;;;;5031739;28;20580;-73
2021/10/08 01:31:57;;;;;;;10.03;8.20;;;9.50;99.90;;;;;;5032011;28;20444;-73
2021/10/08 01:34:23;;;;;;;10.17;7.90;;;9.60;99.90;;;;;;5031245;28;20440;-73
2021/10/08 01:36:48;;;;;;;10.27;7.23;;;9.60;99.90;;;;;;5014519;27;20727;-73
2021/10/08 01:39:14;;;;;;;8.67;6.50;;;9.60;99.90;;;;;;5010934;28;20209;-73
2021/10/08 01:41:39;;;;;;;9.50;7.90;;;9.60;99.90;;;;;;5010259;28;20422;-73
2021/10/08 01:44:05;;;;;;;12.53;7.73;;;9.60;99.90;;;;;;5011263;28;20263;-73
2021/10/08 01:46:30;;;;;;;9.93;7.50;;;9.50;99.90;;;;;;5012621;28;20199;-73
2021/10/08 01:48:56;;;;;;;8.80;6.60;;;9.50;99.90;;;;;;5011510;28;20227;-73
2021/10/08 01:51:22;;;;;;;9.10;7.20;;;9.40;99.90;;;;;;5011510;28;20224;-73
2021/10/08 01:53:48;;;;;;;10.40;7.90;;;9.40;99.90;;;;;;5009754;27;20175;-73
2021/10/08 01:56:13;;;;;;;10.10;7.60;;;9.50;99.90;;;;;;5012462;28;20868;-73
2021/10/08 01:58:39;;;;;;;9.60;8.03;;;9.50;99.90;;;;;;5011387;28;20219;-73
2021/10/08 02:01:04;;;;;;;10.10;7.47;;;9.60;99.90;;;;;;5011841;28;20179;-73
2021/10/08 02:03:30;;;;;;;8.30;6.50;;;9.60;99.90;;;;;;5010455;28;20210;-73
2021/10/08 02:05:56;;;;;;;7.40;6.33;;;9.60;99.90;;;;;;5011987;28;20214;-73
2021/10/08 02:08:21;;;;;;;9.13;6.90;;;9.70;99.90;;;;;;5013515;28;20236;-73
2021/10/08 02:10:47;;;;;;;10.80;6.53;;;9.70;99.90;;;;;;5011903;28;20598;-73
2021/10/08 02:13:12;;;;;;;8.33;7.07;;;9.70;99.90;;;;;;5011430;28;20171;-73
2021/10/08 02:15:38;;;;;;;9.33;7.07;;;9.70;99.90;;;;;;5010886;28;20215;-73
2021/10/08 02:18:03;;;;;;;9.70;7.30;;;9.70;99.90;;;;;;5012124;28;20588;-73
2021/10/08 02:20:29;;;;;;;9.07;7.17;;;9.70;99.90;;;;;;5011025;28;20176;-73
2021/10/08 02:22:55;;;;;;;6.43;5.67;;;9.60;99.90;;;;;;5010881;28;20180;-73
2021/10/08 02:25:20;;;;;;;9.60;6.67;;;9.60;99.90;;;;;;5009362;28;20198;-72
2021/10/08 02:27:46;;;;;;;12.00;6.63;;;9.60;99.90;;;;;;5010035;28;20571;-72
2021/10/08 02:30:12;;;;;;;7.60;6.23;;;9.60;99.90;;;;;;5012161;28;20545;-72
2021/10/08 02:32:38;;;;;;;9.10;6.70;;;9.50;99.90;;;;;;5010757;28;20548;-72
2021/10/08 02:35:04;;;;;;;8.13;6.70;;;9.50;99.90;;;;;;5010516;28;20448;-72
2021/10/08 02:37:30;;;;;;;9.47;6.47;;;9.50;99.90;;;;;;5018535;28;20170;-72
2021/10/08 02:39:55;;;;;;;7.93;6.20;;;9.50;99.90;;;;;;5030729;28;20413;-72
2021/10/08 02:42:21;;;;;;;6.00;5.07;;;9.50;99.90;;;;;;5024796;28;20255;-72
2021/10/08 02:44:46;;;;;;;9.57;5.70;;;9.50;99.90;;;;;;5010501;28;20542;-72
2021/10/08 02:47:12;;;;;;;8.87;6.10;;;9.50;99.90;;;;;;5010790;28;20183;-72
2021/10/08 02:49:37;;;;;;;8.17;6.27;;;9.50;99.90;;;;;;5010421;27;20203;-72
2021/10/08 02:52:04;;;;;;;8.80;6.03;;;9.50;99.90;;;;;;5010573;28;20186;-72
2021/10/08 02:54:30;;;;;;;7.03;6.10;;;9.40;99.90;;;;;;5010278;28;20168;-72
2021/10/08 02:56:55;;;;;;;7.27;6.53;;;9.30;99.90;;;;;;5017974;28;20449;-72
2021/10/08 02:59:21;;;;;;;7.50;6.30;;;9.40;99.90;;;;;;5029955;27;20659;-72
2021/10/08 03:01:46;;;;;;;9.50;6.87;;;9.40;99.90;;;;;;5030506;28;20526;-72
2021/10/08 03:04:12;;;;;;;6.50;5.47;;;9.30;99.90;;;;;;5029058;28;20219;-72
2021/10/08 03:06:37;;;;;;;7.83;6.10;;;9.30;99.90;;;;;;5030065;28;20194;-73
2021/10/08 03:09:03;;;;;;;8.23;5.80;;;9.30;99.90;;;;;;5029967;28;20177;-73
2021/10/08 03:11:29;;;;;;;7.07;5.90;;;9.30;99.90;;;;;;5029877;27;20246;-73
2021/10/08 03:13:55;;;;;;;8.20;6.17;;;9.30;99.90;;;;;;5028258;28;20989;-73
2021/10/08 03:16:20;;;;;;;8.40;6.57;;;9.30;99.90;;;;;;5029990;28;20273;-73
2021/10/08 03:18:46;;;;;;;7.63;6.37;;;9.30;99.90;;;;;;5030045;28;20507;-73
2021/10/08 03:21:11;;;;;;;6.47;5.40;;;9.40;99.90;;;;;;5030405;28;20526;-72
2021/10/08 03:23:37;;;;;;;8.50;6.40;;;9.30;99.90;;;;;;5027298;27;20198;-72
2021/10/08 03:26:03;;;;;;;6.60;5.90;;;9.30;99.90;;;;;;5010455;28;20288;-73
2021/10/08 03:28:28;;;;;;;7.90;6.20;;;9.30;99.90;;;;;;5010023;28;20177;-73
2021/10/08 03:30:54;;;;;;;8.13;6.50;;;9.40;99.90;;;;;;5010136;28;20241;-72
2021/10/08 03:33:19;;;;;;;8.30;6.23;;;9.40;99.90;;;;;;5012253;28;20168;-72
2021/10/08 03:35:45;;;;;;;9.67;6.30;;;9.30;99.90;;;;;;5014588;27;20216;-72
2021/10/08 03:38:14;;;;;;;8.73;6.60;;;9.30;99.90;;;;;;5013431;28;21087;-72
2021/10/08 03:40:41;;;;;;;8.03;6.33;;;9.30;99.90;;;;;;5011866;28;20433;-72
2021/10/08 03:43:10;;;;;;;7.07;5.90;;;9.40;99.90;;;;;;5013403;28;20492;-73
2021/10/08 03:45:45;;;;;;;8.97;7.10;;;9.40;99.90;;;;;;5017179;27;20472;-73
2021/10/08 03:49:13;;;;;;;6.77;5.70;;;9.40;99.90;;;;;;5016988;28;20453;-71
2021/10/08 03:51:07;;;;;;;6.23;5.63;;;9.40;99.90;;;;;;5035318;28;20971;-73
2021/10/08 03:53:33;;;;;;;7.47;5.63;;;9.40;99.90;;;;;;5013975;28;20413;-73
2021/10/08 03:55:58;;;;;;;6.70;5.47;;;9.40;99.90;;;;;;5013161;28;20286;-73
2021/10/08 03:58:24;;;;;;;8.73;6.20;;;9.40;99.90;;;;;;5013223;27;20202;-73
2021/10/08 04:00:50;;;;;;;8.90;6.10;;;9.40;99.90;;;;;;5013318;28;20171;-73
2021/10/08 04:03:15;;;;;;;6.77;5.50;;;9.40;99.90;;;;;;5013868;28;20183;-73
2021/10/08 04:05:41;;;;;;;6.33;5.73;;;9.30;99.90;;;;;;5013683;28;20651;-73
2021/10/08 04:08:07;;;;;;;10.30;6.20;;;9.30;99.90;;;;;;5014809;28;20536;-73
2021/10/08 04:10:32;;;;;;;6.60;6.00;;;9.20;99.90;;;;;;5013429;28;20470;-73
2021/10/08 04:12:58;;;;;;;13.23;5.80;;;9.20;99.90;;;;;;5013145;28;20182;-73
2021/10/08 04:15:23;;;;;;;6.27;5.27;;;9.20;99.90;;;;;;5012727;28;20195;-73
2021/10/08 04:17:49;;;;;;;7.57;5.57;;;9.20;99.90;;;;;;5018545;27;20562;-73
2021/10/08 04:20:15;;;;;;;6.63;5.40;;;9.20;99.90;;;;;;5021038;28;20202;-73
2021/10/08 04:22:40;;;;;;;7.43;5.97;;;9.20;99.90;;;;;;5024306;28;20199;-73
2021/10/08 04:25:07;;;;;;;8.27;6.00;;;9.20;99.90;;;;;;5019777;28;20285;-73
2021/10/08 04:27:33;;;;;;;7.90;5.77;;;9.30;99.90;;;;;;5021352;27;20288;-74
2021/10/08 04:29:58;;;;;;;7.97;6.30;;;9.20;99.90;;;;;;5019500;28;20941;-73
2021/10/08 04:32:24;;;;;;;6.87;5.93;;;9.20;99.90;;;;;;5025590;28;20231;-73
2021/10/08 04:34:49;;;;;;;7.37;5.83;;;9.20;99.90;;;;;;5024533;28;20186;-74
2021/10/08 04:37:15;;;;;;;8.20;5.80;;;9.10;99.90;;;;;;5021318;28;20582;-73
2021/10/08 04:39:40;;;;;;;6.67;5.40;;;9.00;99.90;;;;;;5016413;28;20359;-73
2021/10/08 04:42:06;;;;;;;7.13;5.80;;;9.10;99.90;;;;;;5012538;28;20185;-73
2021/10/08 04:44:33;;;;;;;6.10;5.07;;;9.10;99.90;;;;;;5013767;27;20210;-73
2021/10/08 04:46:59;;;;;;;6.03;5.37;;;9.20;99.90;;;;;;5014742;28;20209;-73
2021/10/08 04:49:25;;;;;;;9.60;5.57;;;9.20;99.90;;;;;;5016829;28;20441;-73
2021/10/08 04:51:51;;;;;;;6.93;5.40;;;9.00;99.90;;;;;;5020770;28;20495;-73
2021/10/08 04:54:16;;;;;;;10.17;7.20;;;8.90;99.90;;;;;;5014135;27;20549;-73
2021/10/08 04:56:42;;;;;;;6.03;5.40;;;8.90;99.90;;;;;;5022409;28;20208;-73
2021/10/08 04:59:07;;;;;;;9.07;5.37;;;8.90;99.90;;;;;;5008961;28;20258;-73
2021/10/08 05:01:33;;;;;;;8.13;5.80;;;9.00;99.90;;;;;;5024281;28;20679;-73
2021/10/08 05:03:59;;;;;;;7.40;5.70;;;9.00;99.90;;;;;;5061567;27;20762;-73
2021/10/08 05:06:24;;;;;;;8.50;5.30;;;9.00;99.90;;;;;;5093228;27;20220;-73
2021/10/08 05:08:50;;;;;;;7.80;5.50;;;9.10;99.90;;;;;;5082256;27;20277;-73
2021/10/08 05:11:16;;;;;;;9.90;5.87;;;9.00;99.90;;;;;;5135075;27;20315;-74
2021/10/08 05:13:41;;;;;;;6.70;5.67;;;9.00;99.90;;;;;;5110589;27;20263;-73
2021/10/08 05:16:07;;;;;;;8.00;5.63;;;9.00;99.90;;;;;;5007066;28;20441;-73
2021/10/08 05:18:32;;;;;;;5.67;4.80;;;9.00;99.90;;;;;;5004194;27;20256;-73
2021/10/08 05:20:58;;;;;;;6.70;5.13;;;9.00;99.90;;;;;;5042012;27;20574;-73
2021/10/08 05:23:24;;;;;;;6.45;5.75;;;8.90;99.90;;;;;;5044255;28;20426;-74
2021/10/08 05:25:49;;;;;;;6.50;4.93;;;8.90;99.90;;;;;;5030911;27;20221;-74
2021/10/08 05:28:15;;;;;;;7.90;5.90;;;8.80;99.90;;;;;;5023427;28;20220;-73
2021/10/08 05:30:40;;;;;;;8.57;5.60;;;8.80;99.90;;;;;;5044586;27;20226;-73
2021/10/08 05:33:06;;;;;;;5.80;5.03;;;8.70;99.90;;;;;;5018040;28;20597;-72
2021/10/08 05:35:32;;;;;;;14.50;6.27;;;8.60;99.90;;;;;;5016202;27;20212;-72
2021/10/08 05:37:57;;;;;;;7.90;5.50;;;8.70;99.90;;;;;;5032977;28;20670;-73
2021/10/08 05:40:23;;;;;;;6.00;5.50;;;8.70;99.90;;;;;;5026059;27;20233;-72
2021/10/08 05:42:49;;;;;;;8.47;5.93;;;8.80;99.90;;;;;;5025489;27;20207;-72
2021/10/08 05:45:14;;;;;;;6.20;5.07;;;8.80;99.90;;;;;;5024579;27;20527;-73
2021/10/08 05:47:40;;;;;;;7.10;4.90;;;8.80;99.90;;;;;;5022395;28;20223;-74
2021/10/08 05:50:07;;;;;;;6.03;4.60;;;8.90;99.90;;;;;;5018108;27;20237;-73
2021/10/08 05:52:32;;;;;;;9.00;5.80;;;8.90;99.90;;;;;;5026967;28;20272;-73
2021/10/08 05:54:58;;;;;;;6.47;5.60;;;8.90;99.90;;;;;;5033548;27;20604;-72
2021/10/08 05:57:23;;;;;;;6.77;5.63;;;8.90;99.90;;;;;;5021404;27;20211;-72
2021/10/08 05:59:49;;;;;;;7.03;5.57;;;9.00;99.90;;;;;;5007458;27;20218;-72
2021/10/08 06:02:15;;;;;;;6.20;5.33;;;9.00;99.90;;;;;;5008713;28;20206;-73
2021/10/08 06:04:41;;;;;;;7.07;6.17;;;9.00;99.90;;;;;;5007559;27;20203;-71
2021/10/08 06:07:08;;;;;;;16.03;6.80;;;9.00;99.90;;;;;;5010516;28;20442;-72
2021/10/08 06:09:34;;;;;;;7.90;5.60;;;9.00;99.90;;;;;;5018942;28;20237;-72
2021/10/08 06:12:01;;;;;;;6.27;5.43;;;9.00;99.90;;;;;;5028864;28;20425;-73
2021/10/08 06:14:26;;;;;;;7.70;6.67;;;8.90;99.90;;;;;;5027856;28;20525;-73
2021/10/08 06:16:52;;;;;;;8.03;6.23;;;9.00;99.90;;;;;;5027376;27;20481;-73
2021/10/08 06:19:18;;;;;;;6.97;6.27;;;8.90;99.90;;;;;;5026389;27;20219;-73
2021/10/08 06:21:43;;;;;;;9.00;5.97;;;8.90;99.90;;;;;;5028678;27;20231;-73
2021/10/08 06:24:09;;;;;;;8.30;6.17;;;8.90;99.90;;;;;;5028095;28;20250;-73
2021/10/08 06:26:34;;;;;;;7.60;5.37;;;8.90;99.90;;;;;;5028241;27;20199;-73
2021/10/08 06:29:00;;;;;;;8.03;6.10;;;8.90;99.90;;;;;;5035388;28;20567;-73
2021/10/08 06:31:26;;;;;;;6.70;5.70;;;8.80;99.90;;;;;;5046525;27;20222;-74
2021/10/08 06:33:51;;;;;;;7.70;5.83;;;8.90;99.90;;;;;;5048651;28;20203;-73
2021/10/08 06:36:17;;;;;;;8.63;5.83;;;8.80;99.90;;;;;;5046658;27;20262;-73
2021/10/08 06:38:43;;;;;;;8.87;5.73;;;8.90;99.90;;;;;;5041963;28;20206;-71
2021/10/08 06:41:08;;;;;;;9.63;5.83;;;8.90;99.90;;;;;;5029222;27;20747;-72
2021/10/08 06:43:34;;;;;;;12.20;6.67;;;8.90;99.90;;;;;;5013129;28;20203;-72
2021/10/08 06:46:00;;;;;;;6.97;5.63;;;8.90;99.90;;;;;;5009272;28;20226;-72
2021/10/08 06:48:26;;;;;;;10.13;5.60;;;9.00;99.90;;;;;;5009617;28;20205;-73
2021/10/08 06:50:52;;;;;;;7.00;5.83;;;9.00;99.90;;;;;;5010730;27;20261;-73
2021/10/08 06:53:17;;;;;;;7.67;6.30;;;9.00;99.90;;;;;;5009871;28;20449;-73
2021/10/08 06:55:43;;;;;;;8.43;6.03;;;9.00;99.90;;;;;;5010515;27;20225;-72
2021/10/08 06:58:09;;;;;;;9.23;5.97;;;9.00;99.90;;;;;;5014461;28;20205;-72
2021/10/08 07:00:35;;;;;;;6.20;5.40;;;9.10;99.90;;;;;;5014373;27;20328;-73
2021/10/08 07:03:00;;;;;;;6.07;5.40;;;9.10;99.90;;;;;;5010663;28;20452;-73
2021/10/08 07:05:26;;;;;;;9.10;6.80;;;9.10;99.90;;;;;;5027369;28;20198;-73
2021/10/08 07:07:52;;;;;;;6.73;5.80;;;9.20;99.90;;;;;;5030738;27;20209;-73
2021/10/08 07:10:18;;;;;;;6.83;6.10;;;9.20;99.90;;;;;;5029858;28;20221;-74
2021/10/08 07:12:44;;;;;;;6.90;6.13;;;9.20;99.90;;;;;;5031731;27;20450;-73
2021/10/08 07:15:18;;;;;;;6.77;6.00;;;9.30;99.90;;;;;;5031873;28;21049;-72
2021/10/08 07:17:47;;;;;;;7.60;5.53;;;9.30;99.90;;;;;;5051481;27;20221;-73
2021/10/08 07:20:15;;;;;;;6.90;6.20;;;9.30;99.90;;;;;;5051778;27;20796;-72
2021/10/08 07:22:41;;;;;;;8.10;7.00;;;9.40;99.90;;;;;;5055494;28;20437;-73
2021/10/08 07:25:07;;;;;;;8.63;6.47;;;9.40;99.90;;;;;;5044061;28;20463;-73
2021/10/08 07:27:34;;;;;;;12.50;7.20;;;9.50;99.90;;;;;;5032533;27;20242;-72
2021/10/08 07:29:59;;;;;;;8.03;6.97;;;9.50;99.90;;;;;;5050823;28;20908;-72
2021/10/08 07:32:27;;;;;;;8.10;6.53;;;9.60;99.90;;;;;;5053318;28;20400;-72
2021/10/08 07:34:53;;;;;;;9.73;6.70;;;9.60;99.90;;;;;;5049428;28;20173;-72
2021/10/08 07:37:18;;;;;;;10.40;7.00;;;9.70;99.90;;;;;;5013348;28;20415;-72
2021/10/08 07:39:44;;;;;;;9.93;7.03;;;9.70;99.90;;;;;;5015537;28;20417;-73
2021/10/08 07:42:10;;;;;;;9.90;7.30;;;9.80;99.90;;;;;;5014808;27;20179;-73
2021/10/08 07:44:36;;;;;;;7.80;6.60;;;9.80;99.90;;;;;;5013721;28;20205;-73
2021/10/08 07:47:01;;;;;;;9.93;6.63;;;9.90;99.90;;;;;;5014507;28;20496;-73
2021/10/08 07:49:27;;;;;;;8.20;7.10;;;10.00;99.90;;;;;;5013313;28;20198;-72
2021/10/08 07:51:52;;;;;;;9.80;7.60;;;10.10;99.90;;;;;;5013617;28;20535;-73
2021/10/08 07:54:18;;;;;;;10.90;7.80;;;10.10;99.90;;;;;;5013132;28;20168;-73
2021/10/08 07:56:44;;;;;;;9.03;7.07;;;10.20;99.90;;;;;;5014705;28;20204;-73
2021/10/08 07:59:09;;;;;;;10.23;8.10;;;10.20;99.90;;;;;;5013598;28;20187;-73
2021/10/08 08:01:35;;;;;;;11.30;7.00;;;10.30;99.90;;;;;;5013858;28;20183;-73
2021/10/08 08:04:00;;;;;;;10.07;6.73;;;10.40;99.90;;;;;;5012941;28;20171;-73
2021/10/08 08:06:26;;;;;;;8.20;7.40;;;10.50;99.90;;;;;;5013225;28;20283;-73
2021/10/08 08:08:52;;;;;;;9.87;7.07;;;10.60;99.90;;;;;;5014182;28;20187;-73
2021/10/08 08:11:17;;;;;;;12.97;8.27;;;10.70;99.90;;;;;;5013666;28;20260;-73
2021/10/08 08:13:43;;;;;;;10.17;7.50;;;10.70;99.90;;;;;;5013002;28;20629;-73
2021/10/08 08:16:09;;;;;;;9.50;7.83;;;10.90;99.90;;;;;;5013262;28;20191;-73
2021/10/08 08:18:35;;;;;;;9.70;7.50;;;10.90;99.90;;;;;;5013286;28;20184;-73
2021/10/08 08:21:02;;;;;;;9.20;7.53;;;11.00;99.90;;;;;;5013131;27;20558;-73
2021/10/08 08:23:27;;;;;;;9.93;8.10;;;11.10;99.90;;;;;;5012683;28;20407;-72
2021/10/08 08:25:54;;;;;;;13.60;8.60;;;11.20;99.90;;;;;;5012818;28;20491;-72
2021/10/08 08:28:21;;;;;;;8.70;7.80;;;11.30;99.90;;;;;;5017361;28;20212;-73
2021/10/08 08:30:47;;;;;;;14.63;9.50;;;11.40;99.90;;;;;;5034278;28;20452;-73
2021/10/08 08:33:13;;;;;;;8.30;7.50;;;11.50;99.90;;;;;;5033707;28;20410;-73
2021/10/08 08:35:39;;;;;;;8.87;7.53;;;11.60;99.90;;;;;;5032527;28;20263;-73
2021/10/08 08:38:04;;;;;;;8.13;7.30;;;11.70;99.90;;;;;;5033028;28;20961;-72
2021/10/08 08:40:30;;;;;;;8.80;7.53;;;11.70;99.90;;;;;;5019035;28;20701;-72
2021/10/08 08:42:58;;;;;;;11.90;8.00;;;11.80;99.90;;;;;;5023760;28;20179;-72
2021/10/08 08:45:23;;;;;;;10.73;8.47;;;11.90;99.90;;;;;;5032501;28;20203;-72
2021/10/08 08:48:03;;;;;;;10.60;7.50;;;12.00;99.90;;;;;;5033303;28;20470;-72
2021/10/08 08:50:31;;;;;;;9.00;7.17;;;12.10;99.90;;;;;;5033593;28;20581;-73
2021/10/08 08:52:56;;;;;;;8.10;7.23;;;12.20;99.90;;;;;;5031877;28;20425;-72
2021/10/08 08:55:22;;;;;;;10.10;7.40;;;12.30;99.90;;;;;;5032688;28;20478;-72
2021/10/08 08:57:48;;;;;;;7.93;7.13;;;12.50;99.90;;;;;;5031759;27;20243;-73
2021/10/08 09:00:17;;;;;;;7.40;6.70;;;12.60;99.90;;;;;;5032632;28;20421;-73
2021/10/08 09:02:44;;;;;;;9.20;7.45;;;12.70;99.90;;;;;;5031807;28;20409;-73
2021/10/08 09:05:18;;;;;;;8.83;7.07;;;12.90;99.90;;;;;;5030998;28;20746;-72
2021/10/08 09:07:44;;;;;;;7.23;6.50;;;13.00;99.90;;;;;;5032945;28;20488;-73
2021/10/08 09:10:11;;;;;;;8.07;6.97;;;13.10;99.90;;;;;;5030304;28;20795;-73
2021/10/08 09:12:38;;;;;;;6.40;5.80;;;13.30;99.90;;;;;;5031653;28;20409;-73
2021/10/08 09:15:04;;;;;;;6.90;6.30;;;13.40;99.90;;;;;;5021472;28;20497;-73
2021/10/08 09:17:30;;;;;;;7.90;5.80;;;13.60;99.90;;;;;;5019234;27;21101;-74
2021/10/08 09:20:04;;;;;;;5.80;5.20;;;13.70;99.90;;;;;;5032089;28;20183;-74
2021/10/08 09:22:39;;;;;;;6.00;5.43;;;13.80;99.90;;;;;;5024853;28;20658;-73
2021/10/08 09:25:18;;;;;;;5.80;5.20;;;14.00;99.90;;;;;;5031129;28;20429;-73
2021/10/08 09:27:47;;;;;;;5.50;4.67;;;14.10;99.90;;;;;;5031563;28;20427;-72
2021/10/08 09:30:13;;;;;;;5.30;4.80;;;14.20;99.90;;;;;;5043919;28;20990;-73
2021/10/08 09:32:44;;;;;;;5.77;5.17;;;14.30;99.90;;;;;;5029791;28;20537;-73
2021/10/08 09:35:12;;;;;;;4.70;4.27;;;14.40;99.90;;;;;;5031647;28;20429;-74
2021/10/08 09:37:38;;;;;;;7.00;4.53;;;14.50;99.90;;;;;;5031978;28;20894;-73
2021/10/08 09:40:20;;;;;;;4.50;4.20;;;14.60;99.90;;;;;;5030903;28;20421;-73
2021/10/08 09:42:46;;;;;;;7.27;5.10;;;14.70;99.90;;;;;;5024280;28;20431;-73
2021/10/08 09:45:11;;;;;;;6.47;5.07;;;14.80;99.90;;;;;;5036948;28;20524;-73
2021/10/08 09:47:39;;;;;;;6.10;5.43;;;14.90;99.90;;;;;;5034909;28;20174;-73
2021/10/08 09:50:12;;;;;;;5.10;4.70;;;15.00;99.90;;;;;;5015205;28;20602;-73
2021/10/08 09:52:38;;;;;;;6.10;4.87;;;15.10;99.90;;;;;;5031475;28;20769;-72
2021/10/08 09:55:10;;;;;;;5.37;4.90;;;15.20;99.90;;;;;;5025235;28;20441;-72
2021/10/08 09:57:47;;;;;;;5.00;4.60;;;15.30;99.90;;;;;;5030350;28;20410;-72
2021/10/08 10:00:40;;;;;;;5.43;5.00;;;15.50;99.90;;;;;;5030709;28;20410;-73
2021/10/08 10:03:08;;;;;;;6.63;5.00;;;15.60;99.90;;;;;;5031399;28;20413;-72
2021/10/08 10:05:34;;;;;;;5.70;5.20;;;15.70;99.90;;;;;;5029893;28;20434;-73
2021/10/08 10:08:00;;;;;;;6.77;5.83;;;15.80;99.90;;;;;;5032090;28;20458;-73
2021/10/08 10:10:26;;;;;;;7.43;6.70;;;15.80;99.90;;;;;;5034904;28;20230;-72
2021/10/08 10:12:52;;;;;;;5.37;4.87;;;15.90;99.90;;;;;;5038522;28;20163;-73
2021/10/08 10:15:19;;;;;;;6.10;4.40;;;16.00;99.90;;;;;;5023639;28;20788;-73
2021/10/08 10:17:45;;;;;;;5.47;5.00;;;16.10;99.90;;;;;;5028226;28;20413;-72
2021/10/08 10:20:13;;;;;;;4.90;4.50;;;16.20;99.90;;;;;;5030718;27;20930;-73
2021/10/08 10:22:39;;;;;;;5.67;4.50;;;16.20;99.90;;;;;;5030838;28;20440;-72
2021/10/08 10:25:06;;;;;;;6.40;4.23;;;16.10;99.90;;;;;;5027579;28;20453;-74
2021/10/08 10:27:32;;;;;;;4.73;4.33;;;16.20;99.90;;;;;;5029469;28;20418;-74
2021/10/08 10:30:00;;;;;;;4.87;4.47;;;16.40;99.90;;;;;;5044138;28;20899;-71
2021/10/08 10:32:25;;;;;;;6.53;4.03;;;16.50;99.90;;;;;;5024577;27;20680;-73
2021/10/08 10:34:51;;;;;;;5.10;4.10;;;16.50;99.90;;;;;;5027980;28;20452;-74
2021/10/08 10:37:41;;;;;;;4.63;4.23;;;16.60;99.90;;;;;;5029456;27;20221;-72
2021/10/08 10:40:23;;;;;;;4.33;3.90;;;16.60;99.90;;;;;;5029257;28;20314;-73
2021/10/08 10:43:14;;;;;;;3.93;3.57;;;16.70;99.90;;;;;;5017705;27;20458;-73
2021/10/08 10:46:20;;;;;;;4.77;3.90;;;16.80;99.90;;;;;;5025870;28;20445;-72
2021/10/08 10:49:15;;;;;;;5.53;3.90;;;16.80;99.90;;;;;;5029190;28;20441;-73
2021/10/08 10:51:56;;;;;;;5.10;4.30;;;16.70;99.90;;;;;;5045927;27;20492;-72
2021/10/08 10:54:41;;;;;;;5.30;4.50;;;16.70;99.90;;;;;;5025930;28;20469;-73
2021/10/08 10:57:32;;;;;;;4.37;3.97;;;16.80;99.90;;;;;;5021251;27;20481;-73
2021/10/08 11:00:26;;;;;;;4.63;4.23;;;16.80;99.90;;;;;;5030786;28;20474;-73
2021/10/08 11:03:04;;;;;;;4.43;4.03;;;16.90;99.90;;;;;;5029779;28;20501;-72
2021/10/08 11:05:30;;;;;;;5.03;4.07;;;16.90;99.90;;;;;;5029801;28;20437;-73
2021/10/08 11:08:16;;;;;;;3.73;3.30;;;16.80;99.90;;;;;;5031081;28;20452;-73
2021/10/08 11:10:44;;;;;;;4.47;4.17;;;16.80;99.90;;;;;;5030249;28;20456;-73
2021/10/08 11:13:27;;;;;;;4.53;4.13;;;16.70;99.90;;;;;;5029017;28;20445;-73
2021/10/08 11:15:57;;;;;;;9.60;4.93;;;16.70;99.90;;;;;;5029950;28;20494;-73
2021/10/08 11:18:44;;;;;;;4.50;4.10;;;16.70;99.90;;;;;;5030219;28;20405;-73
2021/10/08 11:21:13;;;;;;;5.27;4.77;;;16.80;99.90;;;;;;5030159;27;20430;-73
2021/10/08 11:23:39;;;;;;;5.17;4.27;;;16.80;99.90;;;;;;5029072;28;20428;-72
2021/10/08 11:26:15;;;;;;;6.00;4.50;;;16.90;99.90;;;;;;5028407;28;20452;-72
2021/10/08 11:28:43;;;;;;;4.70;3.97;;;17.00;99.90;;;;;;5035441;28;20769;-73
2021/10/08 11:31:19;;;;;;;5.70;4.70;;;17.00;99.90;;;;;;5036817;28;20806;-73
2021/10/08 11:33:47;;;;;;;5.20;4.60;;;17.00;99.90;;;;;;5029659;28;20418;-73
2021/10/08 11:36:31;;;;;;;5.57;4.50;;;17.00;99.90;;;;;;5028007;28;20433;-73
2021/10/08 11:39:12;;;;;;;4.83;4.43;;;16.90;99.90;;;;;;5030364;28;20448;-74
2021/10/08 11:41:39;;;;;;;5.23;4.83;;;16.90;99.90;;;;;;5029971;28;20464;-72
2021/10/08 11:44:19;;;;;;;4.73;4.33;;;16.90;99.90;;;;;;5029398;28;20418;-72
2021/10/08 11:47:09;;;;;;;5.07;4.67;;;16.80;99.90;;;;;;5027566;28;20448;-73
2021/10/08 11:52:01;;;;;;;5.73;4.90;;;16.90;99.90;;;;;;5029621;28;20483;-73
2021/10/08 11:54:27;;;;;;;4.50;3.97;;;16.90;99.90;;;;;;5032001;28;20505;-73
2021/10/08 11:57:00;;;;;;;4.73;4.30;;;16.90;99.90;;;;;;5025687;28;20865;-72
2021/10/08 11:59:27;;;;;;;7.50;4.23;;;16.90;99.90;;;;;;5027875;28;20175;-73
2021/10/08 12:02:14;;;;;;;4.43;4.00;;;16.90;99.90;;;;;;5030957;28;20421;-73
2021/10/08 12:04:54;;;;;;;4.17;3.83;;;16.90;99.90;;;;;;5032535;28;20413;-73
2021/10/08 12:07:20;;;;;;;7.07;4.93;;;17.00;99.90;;;;;;5030619;27;20446;-73
2021/10/08 12:09:45;;;;;;;6.13;4.93;;;17.00;99.90;;;;;;5032066;28;20413;-73
2021/10/08 12:12:14;;;;;;;6.27;4.70;;;17.00;99.90;;;;;;5032270;28;20174;-73
2021/10/08 12:14:45;;;;;;;5.57;4.17;;;17.00;99.90;;;;;;5032353;28;20246;-71
2021/10/08 12:17:12;;;;;;;5.57;4.63;;;17.00;99.90;;;;;;5032085;28;20414;-73
2021/10/08 12:19:37;;;;;;;7.27;4.87;;;17.10;99.90;;;;;;5030166;27;20437;-73
2021/10/08 12:22:03;;;;;;;5.37;4.97;;;17.10;99.90;;;;;;5032051;28;20749;-72
2021/10/08 12:24:32;;;;;;;4.50;4.00;;;17.10;99.90;;;;;;5031954;28;20425;-72
2021/10/08 12:27:01;;;;;;;4.07;3.30;;;17.00;99.90;;;;;;5032200;28;20575;-72
2021/10/08 12:29:44;;;;;;;4.17;3.80;;;17.00;99.90;;;;;;5031457;28;20516;-72
2021/10/08 12:32:12;;;;;;;4.03;3.70;;;17.00;99.90;;;;;;5015497;28;20458;-73
2021/10/08 12:34:45;;;;;;;4.00;3.60;;;17.00;99.90;;;;;;5031651;28;20588;-73
2021/10/08 12:37:20;;;;;;;3.73;3.43;;;17.00;99.90;;;;;;5032376;28;20410;-73
2021/10/08 12:40:18;;;;;;;3.93;3.63;;;17.10;99.90;;;;;;5031507;27;20537;-73
2021/10/08 12:42:56;;;;;;;4.50;3.83;;;17.10;99.90;;;;;;5012704;28;20461;-73
2021/10/08 12:45:36;;;;;;;4.43;3.53;;;17.10;99.90;;;;;;5027030;28;20425;-73
2021/10/08 12:48:06;;;;;;;3.93;3.63;;;17.10;99.90;;;;;;5030890;28;20509;-73
2021/10/08 12:50:33;;;;;;;5.03;4.53;;;17.10;99.90;;;;;;5032144;28;20550;-73
2021/10/08 12:52:59;;;;;;;5.00;3.87;;;17.10;99.90;;;;;;5030666;28;20413;-73
2021/10/08 12:55:25;;;;;;;3.87;3.57;;;17.10;99.90;;;;;;5030322;28;20460;-72
2021/10/08 12:58:11;;;;;;;6.33;4.17;;;17.00;99.90;;;;;;5030692;28;20194;-72